Have a Safe July 4th! 

Flight Track Log - Related Links

Times and Time Zones

All times are in EDT time to prevent confusion due to time zone crossing. See the CPZ5702 flight status page for this flight to view local times or setup timezone preferences in your user account.

Time Position Orientation Groundspeed Altitude Reporting Facility
EDT Latitude Longitude Course Direction KTS MPH feet Rate Location/Type
Fri 07:38:35 AM 29.5200 -98.4569 North 156 180 1,600  Level Houston Center
Fri 07:39:30 AM 29.4908 -98.4150 129° Southeast 193 222 2,700 1,776 Climbing Houston Center
Fri 07:40:13 AM 29.4769 -98.3642 107° East 226 260 4,500 2,192 Climbing Houston Center
Fri 07:41:00 AM 29.9883 -98.4024 10° North  Level FlightAware Approximate
Fri 07:41:14 AM 29.5428 -98.3447 14° North 273 314 6,500  Level Houston Center
Fri 07:42:00 AM 30.1017 -98.3833 North  Level FlightAware Approximate
Fri 07:42:15 AM 29.6203 -98.3519 355° North 281 323 8,800  Level Houston Center
Fri 07:43:00 AM 30.2145 -98.3651 North  Level FlightAware Approximate
Fri 07:43:16 AM 29.7086 -98.3589 356° North 295 339 10,700  Level Houston Center
Fri 07:44:17 AM 29.8033 -98.3672 356° North 342 394 11,900 1,475 Climbing Houston Center
Fri 07:45:18 AM 29.9008 -98.3750 356° North 352 405 13,700 1,672 Climbing Houston Center
Fri 07:46:19 AM 29.9997 -98.3844 355° North 355 409 15,300 1,525 Climbing Houston Center
Fri 07:47:20 AM 30.1017 -98.3928 356° North 365 420 16,800 1,377 Climbing Houston Center
Fri 07:48:21 AM 30.2139 -98.3772 North 375 432 18,100 1,230 Climbing Houston Center
Fri 07:49:22 AM 30.3139 -98.3619 North 380 437 19,300 1,082 Climbing Houston Center
Fri 07:50:23 AM 30.4253 -98.3458 North 394 453 20,300 984 Climbing Houston Center
Fri 07:51:24 AM 30.5378 -98.3303 North 399 459 21,300 885 Climbing Houston Center
Fri 07:52:25 AM 30.6514 -98.3131 North 405 466 22,100 836 Climbing Houston Center
Fri 07:53:26 AM 30.7683 -98.2958 North 413 475 23,000 885 Climbing Houston Center
Fri 07:54:27 AM 30.8861 -98.2778 North 419 482 23,900 836 Climbing Houston Center
Fri 07:55:28 AM 31.0058 -98.2608 North 425 489 24,700 885 Climbing Houston Center
Fri 07:56:29 AM 31.1258 -98.2425 North 427 491 25,700 981 Climbing Houston Center
Fri 07:57:12 AM 31.2064 -98.2319 North 424 488 26,400 990 Climbing Fort Worth Center
Fri 07:58:12 AM 31.3256 -98.2158 North 424 488 27,400 1,000 Climbing Fort Worth Center
Fri 07:59:12 AM 31.4447 -98.1975 North 429 494 28,400 1,000 Climbing Fort Worth Center
Fri 08:00:12 AM 31.5783 -98.1767 North 429 494 29,400 1,000 Climbing Fort Worth Center
Fri 08:01:12 AM 31.6975 -98.1581 North 429 494 30,400 1,000 Climbing Fort Worth Center
Fri 08:02:12 AM 31.8208 -98.1394 North 429 494 31,400 1,000 Climbing Fort Worth Center
Fri 08:03:12 AM 31.9442 -98.1183 North 440 506 32,400 1,000 Climbing Fort Worth Center
Fri 08:04:12 AM 32.0631 -98.1022 North 440 506 33,400 1,000 Climbing Fort Worth Center
Fri 08:05:12 AM 32.1822 -98.0858 North 440 506 34,400 800 Climbing Fort Worth Center
Fri 08:06:12 AM 32.3014 -98.0672 North 429 494 35,000 300 Climbing Fort Worth Center
Fri 08:07:12 AM 32.4225 -98.0483 North 429 494 35,000  Level Fort Worth Center
Fri 08:08:12 AM 32.5436 -98.0294 North 429 494 35,000  Level Fort Worth Center
Fri 08:09:12 AM 32.6669 -98.0106 North 429 494 35,000  Level Fort Worth Center
Fri 08:10:12 AM 32.7903 -97.9917 North 434 499 35,000  Level Fort Worth Center
Fri 08:11:12 AM 32.8989 -97.9775 North 434 499 35,000  Level Fort Worth Center
Fri 08:12:12 AM 33.0242 -97.9586 North 440 506 35,000  Level Fort Worth Center
Fri 08:13:12 AM 33.1475 -97.9394 North 445 512 35,000  Level Fort Worth Center
Fri 08:14:12 AM 33.2686 -97.9228 North 445 512 35,000  Level Fort Worth Center
Fri 08:15:12 AM 33.3919 -97.9036 North 440 506 35,000  Level Fort Worth Center
Fri 08:16:12 AM 33.5131 -97.8869 North 440 506 35,000  Level Fort Worth Center
Fri 08:17:12 AM 33.6342 -97.8675 North 445 512 35,000  Level Fort Worth Center
Fri 08:18:12 AM 33.7553 -97.8506 North 445 512 35,000  Level Fort Worth Center
Fri 08:19:12 AM 33.8783 -97.8314 North 445 512 35,000  Level Fort Worth Center
Fri 08:20:12 AM 33.9994 -97.8144 North 445 512 35,000  Level Fort Worth Center
Fri 08:21:12 AM 34.1269 -97.7975 North 433 498 35,000  Level Fort Worth Center
Fri 08:22:12 AM 34.2478 -97.7803 North 428 493 35,000  Level Fort Worth Center
Fri 08:23:12 AM 34.3711 -97.7608 North 428 493 35,000  Level Fort Worth Center
Fri 08:24:12 AM 34.4922 -97.7436 North 428 493 35,000  Level Fort Worth Center
Fri 08:25:12 AM 34.6131 -97.7239 North 433 498 35,000  Level Fort Worth Center
Fri 08:26:12 AM 34.7342 -97.7067 North 433 498 35,000  Level Fort Worth Center
Fri 08:27:12 AM 34.8572 -97.6894 North 438 504 35,000  Level Fort Worth Center
Fri 08:28:12 AM 34.9783 -97.6694 North 438 504 35,000  Level Fort Worth Center
Fri 08:29:12 AM 35.0972 -97.6522 North 438 504 35,000  Level Fort Worth Center
Fri 08:30:12 AM 35.2183 -97.6347 North 438 504 35,000  Level Fort Worth Center
Fri 08:32:12 AM 35.4375 -97.5883 10° North 436 502 35,000  Level Kansas City Center
Fri 08:33:12 AM 35.5569 -97.5469 16° North 437 503 35,000  Level Kansas City Center
Fri 08:34:14 AM 35.6764 -97.5086 15° North 437 503 35,000  Level Kansas City Center
Fri 08:35:17 AM 35.8175 -97.4622 15° North 436 502 35,000  Level Kansas City Center
Fri 08:36:18 AM 35.9333 -97.4239 15° North 433 498 35,000  Level Kansas City Center
Fri 08:37:19 AM 36.0492 -97.3894 14° North 429 494 35,000  Level Kansas City Center
Fri 08:38:22 AM 36.1656 -97.3525 14° North 430 495 35,000  Level Kansas City Center
Fri 08:39:23 AM 36.2803 -97.3142 15° North 428 493 35,000  Level Kansas City Center
Fri 08:40:23 AM 36.3961 -97.2767 15° North 429 494 35,000  Level Kansas City Center
Fri 08:41:27 AM 36.5117 -97.2389 15° North 429 494 35,000  Level Kansas City Center
Fri 08:42:27 AM 36.6278 -97.2006 15° North 430 495 35,000  Level Kansas City Center
Fri 08:43:28 AM 36.7431 -97.1642 14° North 429 494 35,000  Level Kansas City Center
Fri 08:44:29 AM 36.8706 -97.2086 344° North 433 498 35,000  Level Kansas City Center
Fri 08:45:30 AM 36.9867 -97.1822 10° North 434 499 35,000  Level Kansas City Center
Fri 08:46:34 AM 37.0981 -97.1292 21° North 430 495 35,000  Level Kansas City Center
Fri 08:47:34 AM 37.2100 -97.0772 20° North 430 495 35,000  Level Kansas City Center
Fri 08:48:37 AM 37.3450 -97.0122 21° North 433 498 35,000  Level Kansas City Center
Fri 08:49:36 AM 37.4572 -96.9581 21° North 432 497 35,000  Level Kansas City Center
Fri 08:50:39 AM 37.5694 -96.9047 21° North 433 498 35,000  Level Kansas City Center
Fri 08:51:41 AM 37.6822 -96.8506 21° North 434 499 35,000  Level Kansas City Center
Fri 08:52:41 AM 37.7944 -96.7972 21° North 433 498 35,000  Level Kansas City Center
Fri 08:53:43 AM 37.9061 -96.7431 21° North 431 496 35,000  Level Kansas City Center
Fri 08:54:43 AM 38.0178 -96.6892 21° North 431 496 35,000  Level Kansas City Center
Fri 08:55:47 AM 38.1525 -96.6231 21° North 432 497 35,000  Level Kansas City Center
Fri 08:56:47 AM 38.2647 -96.5683 21° North 432 497 35,000  Level Kansas City Center
Fri 08:57:48 AM 38.3778 -96.5136 21° North 435 501 35,000  Level Kansas City Center
Fri 08:58:52 AM 38.4922 -96.4581 21° North 431 496 35,000  Level Kansas City Center
Fri 08:59:55 AM 38.6158 -96.3969 21° North 427 491 35,000  Level Kansas City Center
Fri 09:00:55 AM 38.7228 -96.3433 21° North 428 493 35,000  Level Kansas City Center
Fri 09:01:59 AM 38.8297 -96.2908 21° North 428 493 35,000  Level Kansas City Center
Fri 09:03:00 AM 38.9533 -96.2300 21° North 426 490 35,000  Level Kansas City Center
Fri 09:04:01 AM 39.0600 -96.1753 22° Northeast 427 491 35,000  Level Kansas City Center
Fri 09:05:04 AM 39.1853 -96.1136 21° North 429 494 35,000  Level Kansas City Center
Fri 09:06:04 AM 39.2919 -96.0592 22° Northeast 429 494 35,000  Level Kansas City Center
Fri 09:07:05 AM 39.3983 -96.0050 21° North 426 490 35,000  Level Kansas City Center
Fri 09:08:06 AM 39.5228 -95.9433 21° North 428 493 35,000  Level Kansas City Center
Fri 09:09:07 AM 39.6286 -95.8886 22° Northeast 425 489 35,000  Level Kansas City Center
Fri 09:10:08 AM 39.7519 -95.8261 21° North 424 488 35,000  Level Kansas City Center
Fri 09:11:12 AM 39.8567 -95.7717 22° Northeast 423 487 35,000  Level Kansas City Center
Fri 09:12:13 AM 39.9617 -95.7194 21° North 422 486 35,000  Level Kansas City Center
Fri 09:13:13 AM 40.0850 -95.6558 22° Northeast 423 487 35,000  Level Kansas City Center
Fri 09:14:02 AM 40.1722 -95.6094 22° Northeast 422 486 35,000  Level Minneapolis Center
Fri 09:15:03 AM 40.2817 -95.5511 22° Northeast 425 489 35,000  Level Minneapolis Center
Fri 09:16:05 AM 40.3906 -95.4964 21° North 422 486 35,000  Level Minneapolis Center
Fri 09:17:07 AM 40.5000 -95.4378 22° Northeast 424 488 35,000  Level Minneapolis Center
Fri 09:18:08 AM 40.6083 -95.3817 21° North 422 486 35,000  Level Minneapolis Center
Fri 09:19:10 AM 40.7183 -95.3231 22° Northeast 425 489 35,000  Level Minneapolis Center
Fri 09:20:11 AM 40.8489 -95.2547 22° Northeast 423 487 35,000  Level Minneapolis Center
Fri 09:21:13 AM 40.9572 -95.1981 22° Northeast 422 486 35,000  Level Minneapolis Center
Fri 09:22:15 AM 41.0653 -95.1397 22° Northeast 421 484 35,000  Level Minneapolis Center
Fri 09:23:17 AM 41.1717 -95.0836 22° Northeast 418 481 35,000  Level Minneapolis Center
Fri 09:24:18 AM 41.2789 -95.0258 22° Northeast 417 480 35,000  Level Minneapolis Center
Fri 09:25:20 AM 41.3842 -94.9689 22° Northeast 413 475 35,000  Level Minneapolis Center
Fri 09:26:22 AM 41.5117 -94.9008 22° Northeast 414 476 35,000  Level Minneapolis Center
Fri 09:27:23 AM 41.6164 -94.8436 22° Northeast 411 473 35,000  Level Minneapolis Center
Fri 09:28:25 AM 41.7228 -94.7861 22° Northeast 412 474 35,000  Level Minneapolis Center
Fri 09:29:27 AM 41.8278 -94.7289 22° Northeast 410 472 35,000  Level Minneapolis Center
Fri 09:30:28 AM 41.9333 -94.6711 22° Northeast 409 471 35,000  Level Minneapolis Center
Fri 09:31:30 AM 42.0394 -94.6122 22° Northeast 411 473 35,000  Level Minneapolis Center
Fri 09:32:32 AM 42.1447 -94.5550 22° Northeast 409 471 35,000  Level Minneapolis Center
Fri 09:33:33 AM 42.2494 -94.4964 23° Northeast 409 471 35,000  Level Minneapolis Center
Fri 09:34:35 AM 42.3756 -94.4267 22° Northeast 407 468 35,000  Level Minneapolis Center
Fri 09:35:37 AM 42.4800 -94.3681 22° Northeast 406 467 35,000  Level Minneapolis Center
Fri 09:36:38 AM 42.5733 -94.3131 23° Northeast 402 463 35,000  Level Minneapolis Center
Fri 09:37:40 AM 42.6700 -94.2294 32° Northeast 415 478 35,000 -242 Level Minneapolis Center
Fri 09:38:42 AM 42.7789 -94.1089 39° Northeast 422 486 34,500 -622 Descending Minneapolis Center
Fri 09:39:55 AM 42.8667 -94.0111 39° Northeast 413 475 33,600 -667 Descending Minneapolis Center
Fri 09:40:57 AM 42.9753 -93.8925 39° Northeast 418 481 33,000 -290 Descending Minneapolis Center
Fri 09:41:59 AM 43.0667 -93.7928 39° Northeast 421 484 33,000  Level Minneapolis Center
Fri 09:43:01 AM 43.1561 -93.6928 39° Northeast 420 483 33,000 -339 Level Minneapolis Center
Fri 09:44:03 AM 43.2450 -93.5919 40° Northeast 419 482 32,300 -1,854 Descending Minneapolis Center
Fri 09:45:04 AM 43.3767 -93.5417 16° North 415 478 29,200 -2,683 Descending Minneapolis Center
Fri 09:46:06 AM 43.4897 -93.5317 North 410 472 26,800 -2,274 Descending Minneapolis Center
Fri 09:47:08 AM 43.5958 -93.5219 North 405 466 24,500 -2,226 Descending Minneapolis Center
Fri 09:48:10 AM 43.7028 -93.5122 North 393 452 22,200 -2,390 Descending Minneapolis Center
Fri 09:49:11 AM 43.8256 -93.5003 North 373 429 19,600 -2,244 Descending Minneapolis Center
Fri 09:50:13 AM 43.9258 -93.4897 North 363 418 17,600 -2,129 Descending Minneapolis Center
Fri 09:51:15 AM 44.0233 -93.4814 North 355 409 15,200 -2,129 Descending Minneapolis Center
Fri 09:52:17 AM 44.1172 -93.4725 North 343 395 13,200 -1,951 Descending Minneapolis Center
Fri 09:53:18 AM 44.2103 -93.4622 North 335 386 11,200 -1,073 Descending Minneapolis Center
Fri 09:54:20 AM 44.2967 -93.4158 21° North 337 388 11,000 -97 Descending Minneapolis Center
Fri 09:55:22 AM 44.3803 -93.3569 27° Northeast 337 388 11,000  Level Minneapolis Center
Fri 09:56:24 AM 44.4811 -93.2864 27° Northeast 338 389 11,000  Level Minneapolis Center
Fri 09:57:25 AM 44.5633 -93.2286 27° Northeast 334 384 11,000 -293 Level Minneapolis Center
Fri 09:58:27 AM 44.6444 -93.1936 17° North 308 354 10,400 -1,143 Descending Minneapolis Center
Fri 09:59:31 AM 44.7186 -93.2369 337° Northwest 285 328 8,600 -1,043 Descending Minneapolis Center
Fri 10:00:45 AM 44.7942 -93.2842 336° Northwest 279 321 8,000 -618 Descending Minneapolis Center
Fri 10:01:47 AM 44.8414 -93.3681 308° West 234 269 7,200 -968 Descending Minneapolis Center
Fri 10:02:49 AM 44.8708 -93.4486 297° West 232 267 6,000 -871 Descending Minneapolis Center
Fri 10:03:51 AM 44.9158 -93.4925 325° Northwest 193 222 5,400 -1,016 Descending Minneapolis Center
Fri 10:04:53 AM 44.9608 -93.4550 31° Northeast 187 215 3,900 -1,161 Descending Minneapolis Center
Fri 10:05:55 AM 44.9547 -93.3875 97° East 171 197 3,000 -683 Descending Minneapolis Center
Fri 10:06:56 AM 44.9372 -93.3269 112° Southeast 165 190 2,500 -585 Descending Minneapolis Center
Fri 10:07:58 AM 44.9200 -93.2817 118° Southeast 132 152 1,800 -677 Descending Minneapolis Center
Fri 10:09:00 AM 44.9006 -93.2378 122° Southeast 131 151 1,100 -677 Descending Minneapolis Center

Login

Don't have an account? Register now (free) for customized features, flight alerts, and more!